Time;durP1;ratioP1;P1;durP2;ratioP2;P2;SDS_P1;SDS_P2;PMS_P1;PMS_P2;Temp;Humidity;BMP_temperature;BMP_pressure;BME280_temperature;BME280_humidity;BME280_pressure;Samples;Min_cycle;Max_cycle;Signal;HPM_P1;HPM_P2
2022/01/18 00:00:11;;;;;;;;;50.75;43.75;;;;;6.84;68.98;103027.22;5055946;28;45515;-58
2022/01/18 00:02:39;;;;;;;;;45.75;39.25;;;;;6.81;69.34;103035.88;5056103;28;45605;-58
2022/01/18 00:05:06;;;;;;;;;47.50;42.75;;;;;6.78;69.23;103043.69;5056155;28;45499;-58
2022/01/18 00:07:32;;;;;;;;;59.25;48.00;;;;;6.77;68.88;103026.25;5056460;28;45555;-58
2022/01/18 00:09:57;;;;;;;;;38.00;37.50;;;;;6.77;68.92;103030.56;5037873;28;45458;-57
2022/01/18 00:20:51;;;;;;;;;43.50;35.25;;;;;6.73;69.71;103027.00;5056245;28;45544;-63
2022/01/18 00:23:17;;;;;;;;;38.75;35.25;;;;;6.76;69.14;103032.31;5055725;28;45369;-61
2022/01/18 00:25:47;;;;;;;;;36.75;32.50;;;;;6.72;69.42;103032.22;5055695;28;46084;-61
2022/01/18 00:28:13;;;;;;;;;34.25;31.25;;;;;6.70;69.22;103023.47;5055909;28;45482;-59
2022/01/18 00:35:40;;;;;;;;;36.25;33.75;;;;;6.65;69.96;103018.13;5055996;28;46086;-60
2022/01/18 00:38:15;;;;;;;;;36.75;33.25;;;;;6.67;69.01;103008.59;5055407;28;45515;-61
2022/01/18 00:40:40;;;;;;;;;32.50;31.25;;;;;6.64;69.04;103013.78;5054765;28;45574;-61
2022/01/18 00:43:06;;;;;;;;;50.00;41.75;;;;;6.64;69.70;103019.88;5055560;28;45607;-63
2022/01/18 00:45:31;;;;;;;;;36.75;33.00;;;;;6.59;69.80;103008.44;5054593;28;46140;-61
2022/01/18 00:47:57;;;;;;;;;50.25;39.50;;;;;6.64;69.55;103003.31;5056170;28;45379;-61
2022/01/18 00:50:23;;;;;;;;;35.75;34.50;;;;;6.63;69.74;103007.63;5055966;28;45515;-61
2022/01/18 00:52:52;;;;;;;;;37.25;34.75;;;;;6.63;69.05;103006.75;5055783;28;45644;-61
2022/01/18 00:55:17;;;;;;;;;38.00;33.00;;;;;6.60;69.65;103010.19;5054778;28;45500;-62
2022/01/18 00:57:42;;;;;;;;;34.25;31.50;;;;;6.62;69.05;103011.09;5055026;28;45523;-60
2022/01/18 01:00:08;;;;;;;;;28.25;27.50;;;;;6.65;69.29;103002.44;5055236;28;45408;-61
2022/01/18 01:02:34;;;;;;;;;39.75;36.00;;;;;6.67;69.58;103003.38;5054878;28;45405;-61
2022/01/18 01:04:59;;;;;;;;;36.75;32.50;;;;;6.63;69.05;103017.22;5037664;28;48469;-59
2022/01/18 01:07:24;;;;;;;;;35.00;31.25;;;;;6.63;68.90;102999.78;5057364;28;45515;-59
2022/01/18 01:09:51;;;;;;;;;32.25;29.25;;;;;6.63;68.96;102996.31;5055419;28;45787;-59
2022/01/18 01:12:19;;;;;;;;;32.75;29.75;;;;;6.62;69.38;103005.88;5056020;28;45587;-62
2022/01/18 01:14:46;;;;;;;;;33.25;31.00;;;;;6.63;69.31;103004.16;5055114;28;46255;-61
2022/01/18 01:18:09;;;;;;;;;36.50;31.00;;;;;6.63;69.19;103006.75;5054974;28;45455;-61
2022/01/18 01:44:18;;;;;;;;;33.75;31.75;;;;;6.60;69.19;103004.09;5054670;28;45542;-63
2022/01/18 01:46:45;;;;;;;;;30.25;30.25;;;;;6.57;68.64;103007.53;5054129;28;46267;-59
2022/01/18 01:49:13;;;;;;;;;32.00;28.00;;;;;6.57;69.16;103001.41;5054828;28;45508;-61
2022/01/18 01:51:39;;;;;;;;;35.00;28.00;;;;;6.56;69.19;103005.78;5053527;28;45506;-61
2022/01/18 01:54:07;;;;;;;;;30.00;28.50;;;;;6.58;69.42;103003.16;5053789;28;45452;-62
2022/01/18 01:56:34;;;;;;;;;30.75;28.25;;;;;6.56;69.67;103011.00;5053589;28;46102;-61
2022/01/18 01:59:01;;;;;;;;;35.25;32.75;;;;;6.52;69.29;103009.16;5054908;28;45554;-62
2022/01/18 02:01:26;;;;;;;;;38.00;33.00;;;;;6.53;69.47;103008.31;5054377;28;45410;-61
2022/01/18 02:03:52;;;;;;;;;38.75;32.75;;;;;6.51;69.22;103014.38;5054380;28;45559;-61
2022/01/18 02:06:17;;;;;;;;;41.00;33.25;;;;;6.46;69.74;103014.28;5054501;28;45592;-61
2022/01/18 02:08:44;;;;;;;;;35.75;33.75;;;;;6.46;69.65;103013.41;5054439;28;45545;-61
2022/01/18 02:11:10;;;;;;;;;38.50;36.75;;;;;6.43;69.52;103016.81;5054254;28;45554;-60
2022/01/18 02:13:36;;;;;;;;;41.25;36.50;;;;;6.43;69.64;103010.72;5054278;28;46145;-61
2022/01/18 02:24:04;;;;;;;;;31.25;25.50;;;;;6.23;69.81;103012.91;5058273;28;45365;-62
2022/01/18 02:26:30;;;;;;;;;32.25;30.00;;;;;6.18;70.03;103012.81;5039920;28;48839;-62
2022/01/18 02:29:00;;;;;;;;;33.25;30.75;;;;;6.18;69.60;103012.81;5058279;28;45376;-59
2022/01/18 02:31:26;;;;;;;;;37.00;33.50;;;;;6.16;70.13;102999.72;5058092;28;45432;-61
2022/01/18 02:33:51;;;;;;;;;30.25;27.50;;;;;6.13;69.80;103014.44;5057879;28;45587;-62
2022/01/18 02:36:16;;;;;;;;;30.00;30.00;;;;;6.08;69.44;103018.69;5057980;28;45575;-59
2022/01/18 02:38:42;;;;;;;;;35.00;31.50;;;;;6.05;69.65;103002.94;5058101;28;45440;-61
2022/01/18 02:41:07;;;;;;;;;32.25;31.50;;;;;6.06;69.55;103000.34;5058256;28;45440;-61
2022/01/18 02:43:50;;;;;;;;;37.25;35.50;;;;;6.04;69.82;103012.50;5058474;28;45647;-61
2022/01/18 02:46:15;;;;;;;;;44.00;36.50;;;;;6.02;69.98;103010.69;5057335;28;45521;-61
2022/01/18 02:48:40;;;;;;;;;31.75;30.50;;;;;5.95;69.83;102991.41;5058330;28;45472;-62
2022/01/18 02:51:06;;;;;;;;;43.25;38.25;;;;;5.90;70.13;102999.09;5058260;28;45545;-61
2022/01/18 02:53:31;;;;;;;;;38.75;33.25;;;;;5.93;70.32;103012.25;5057262;28;45483;-61
2022/01/18 02:55:58;;;;;;;;;35.50;31.00;;;;;5.95;70.17;102997.50;5057538;28;45436;-61
2022/01/18 02:58:31;;;;;;;;;36.75;28.25;;;;;5.88;70.14;103010.34;5058097;28;45458;-61
2022/01/18 03:03:41;;;;;;;;;32.75;29.75;;;;;5.87;70.01;103000.75;5056903;28;45523;-61
2022/01/18 03:06:07;;;;;;;;;33.25;27.50;;;;;5.86;70.04;102992.06;5057404;28;45666;-61
2022/01/18 03:08:33;;;;;;;;;26.75;26.75;;;;;5.81;69.90;102996.28;5057250;28;45431;-61
2022/01/18 03:11:00;;;;;;;;;28.50;26.25;;;;;5.76;70.19;102983.13;5057695;28;45365;-61
2022/01/18 03:13:25;;;;;;;;;27.50;24.00;;;;;5.74;69.89;102970.88;5057880;28;45396;-61
2022/01/18 03:15:51;;;;;;;;;35.25;30.50;;;;;5.70;70.15;102982.09;5057597;28;46082;-61
2022/01/18 03:18:16;;;;;;;;;31.00;28.50;;;;;5.69;70.21;102968.16;5057004;28;45431;-61
2022/01/18 03:20:42;;;;;;;;;30.25;27.25;;;;;5.68;70.28;102958.56;5056961;28;45434;-61
2022/01/18 03:23:16;;;;;;;;;35.50;30.75;;;;;5.65;70.40;102965.44;5057584;28;45517;-61
2022/01/18 03:25:52;;;;;;;;;33.00;29.25;;;;;5.69;70.30;102964.66;5057514;28;45473;-62
2022/01/18 03:28:18;;;;;;;;;36.25;32.50;;;;;5.66;70.52;102948.94;5056771;28;45393;-61
2022/01/18 03:30:46;;;;;;;;;37.50;32.75;;;;;5.67;70.62;102956.81;5055498;28;45503;-62
2022/01/18 03:33:14;;;;;;;;;30.50;25.50;;;;;5.67;70.73;102964.63;5038485;28;45408;-61
2022/01/18 03:35:41;;;;;;;;;33.75;30.00;;;;;5.66;70.69;102956.75;5056997;28;45475;-61
2022/01/18 03:38:07;;;;;;;;;40.75;38.50;;;;;5.67;70.68;102971.56;5057146;28;45442;-62
2022/01/18 03:40:33;;;;;;;;;39.25;36.00;;;;;5.70;70.73;102966.44;5056783;28;45353;-61
2022/01/18 03:43:00;;;;;;;;;29.25;27.75;;;;;5.72;70.12;102964.72;5057331;28;45643;-61
2022/01/18 03:45:32;;;;;;;;;48.75;40.00;;;;;5.71;70.82;102966.47;5056698;28;46688;-61
2022/01/18 03:48:02;;;;;;;;;34.75;30.75;;;;;5.75;70.53;102967.44;5038968;28;45461;-62
2022/01/18 03:50:27;;;;;;;;;38.75;29.50;;;;;5.67;70.47;102945.47;5038524;28;45419;-61
2022/01/18 03:52:53;;;;;;;;;43.50;33.75;;;;;5.65;70.66;102958.50;5056588;28;45710;-62
2022/01/18 03:55:21;;;;;;;;;37.00;34.75;;;;;5.64;71.02;102971.50;5056883;28;45717;-61
2022/01/18 03:57:47;;;;;;;;;36.75;33.00;;;;;5.70;70.73;102966.44;5056755;28;45453;-61
2022/01/18 04:00:22;;;;;;;;;36.25;32.75;;;;;5.72;70.68;102959.50;5057278;28;45367;-61
2022/01/18 04:02:48;;;;;;;;;37.75;32.50;;;;;5.70;70.60;102963.81;5056686;28;45447;-61
2022/01/18 04:05:14;;;;;;;;;40.00;35.25;;;;;5.68;70.71;102962.91;5056203;28;46610;-61
2022/01/18 04:07:40;;;;;;;;;29.00;27.00;;;;;5.64;70.79;102948.00;5056923;28;45495;-62
2022/01/18 04:10:07;;;;;;;;;35.50;30.75;;;;;5.65;70.73;102958.50;5057052;28;45469;-61
2022/01/18 04:12:34;;;;;;;;;35.25;32.00;;;;;5.62;70.43;102947.97;5056560;28;45654;-62
2022/01/18 04:15:01;;;;;;;;;43.25;35.50;;;;;5.62;71.15;102957.56;5056011;28;45539;-60
2022/01/18 04:28:21;;;;;;;;;38.00;33.25;;;;;5.69;70.65;102957.69;5056736;28;45377;-60
2022/01/18 04:30:47;;;;;;;;;27.75;26.25;;;;;5.66;70.28;102943.72;5038366;28;45485;-60
2022/01/18 04:33:12;;;;;;;;;37.00;29.25;;;;;5.67;70.54;102953.28;5056590;28;45488;-61
2022/01/18 04:35:37;;;;;;;;;33.00;31.00;;;;;5.67;70.82;102955.91;5055463;28;46059;-61
2022/01/18 04:38:03;;;;;;;;;37.00;33.50;;;;;5.65;70.92;102953.28;5056378;28;45464;-61
2022/01/18 04:40:31;;;;;;;;;31.75;29.75;;;;;5.60;70.83;102949.66;5056567;28;45459;-60
2022/01/18 04:50:58;;;;;;;;;31.25;29.75;;;;;5.57;71.66;102943.50;5056244;28;45591;-61
2022/01/18 04:53:25;;;;;;;;;37.00;36.25;;;;;5.57;71.52;102940.91;5054913;28;45507;-61
2022/01/18 04:55:54;;;;;;;;;41.50;37.25;;;;;5.55;71.62;102935.63;5055364;28;46045;-61
2022/01/18 04:58:22;;;;;;;;;34.00;33.75;;;;;5.54;72.13;102939.97;5037177;28;45622;-61
2022/01/18 05:00:49;;;;;;;;;35.25;31.50;;;;;5.56;71.51;102941.72;5055830;28;45436;-61
2022/01/18 05:03:14;;;;;;;;;29.00;27.75;;;;;5.54;71.82;102934.75;5037483;28;45527;-61
2022/01/18 05:05:40;;;;;;;;;35.25;31.00;;;;;5.54;71.49;102937.38;5055625;28;45460;-61
2022/01/18 05:08:12;;;;;;;;;44.25;34.00;;;;;5.54;71.40;102944.31;5055551;28;45438;-61
2022/01/18 05:10:37;;;;;;;;;36.00;30.50;;;;;5.53;71.51;102937.31;5056360;28;45427;-61
2022/01/18 05:13:13;;;;;;;;;38.50;29.50;;;;;5.54;71.58;102945.19;5055619;28;45424;-61
2022/01/18 05:15:45;;;;;;;;;36.75;33.50;;;;;5.53;71.95;102943.44;5036895;28;45469;-60
2022/01/18 05:23:20;;;;;;;;;43.25;38.00;;;;;5.55;71.78;102951.28;5056012;28;45716;-60
2022/01/18 05:25:46;;;;;;;;;39.00;33.25;;;;;5.51;72.08;102950.34;5055251;28;45500;-62
2022/01/18 05:28:13;;;;;;;;;41.50;35.75;;;;;5.56;72.08;102952.16;5055532;28;45465;-60
2022/01/18 05:30:39;;;;;;;;;39.00;37.25;;;;;5.61;72.27;102947.94;5036468;28;45480;-61
2022/01/18 05:33:05;;;;;;;;;34.00;32.25;;;;;5.64;71.89;102945.41;5055609;28;45580;-61
2022/01/18 05:35:30;;;;;;;;;37.75;36.25;;;;;5.67;71.94;102946.38;5055453;28;45515;-61
2022/01/18 05:37:56;;;;;;;;;35.75;32.50;;;;;5.70;71.79;102935.13;5055579;28;45383;-61
2022/01/18 05:40:21;;;;;;;;;37.25;32.00;;;;;5.74;71.80;102936.94;5054946;28;45448;-60
2022/01/18 05:42:47;;;;;;;;;32.25;30.50;;;;;5.73;71.80;102937.78;5036868;28;45612;-60
2022/01/18 05:45:13;;;;;;;;;38.50;33.75;;;;;5.74;71.84;102926.47;5055623;28;46170;-61
2022/01/18 05:47:40;;;;;;;;;35.50;34.50;;;;;5.77;71.58;102923.94;5055161;28;45393;-61
2022/01/18 05:50:07;;;;;;;;;27.00;26.50;;;;;5.78;71.44;102924.81;5055018;28;45531;-61
2022/01/18 05:52:33;;;;;;;;;38.25;35.75;;;;;5.79;71.50;102926.59;5054603;28;45563;-60
2022/01/18 05:54:59;;;;;;;;;43.75;31.75;;;;;5.75;71.65;102918.69;5057560;28;45540;-61
2022/01/18 05:57:24;;;;;;;;;36.25;33.25;;;;;5.72;71.75;102929.06;5058657;28;45489;-60
2022/01/18 05:59:50;;;;;;;;;38.50;34.00;;;;;5.75;71.79;102931.75;5058839;28;45496;-61
2022/01/18 06:02:19;;;;;;;;;35.75;29.50;;;;;5.73;71.66;102920.38;5058424;28;45414;-61
2022/01/18 06:07:30;;;;;;;;;35.75;32.50;;;;;5.76;71.62;102933.50;5058871;28;45523;-61
2022/01/18 06:09:56;;;;;;;;;33.50;25.75;;;;;5.76;71.67;102925.66;5058863;28;45491;-61
2022/01/18 06:12:28;;;;;;;;;37.50;34.75;;;;;5.72;71.83;102929.06;5057834;28;45471;-60
2022/01/18 06:14:53;;;;;;;;;34.75;31.75;;;;;5.70;71.09;102927.28;5057587;28;45424;-61
2022/01/18 06:17:19;;;;;;;;;30.50;27.25;;;;;5.65;71.94;102927.16;5070479;28;45516;-61
2022/01/18 06:19:44;;;;;;;;;27.25;26.25;;;;;5.59;72.04;102932.25;5058545;28;45443;-60
2022/01/18 06:22:10;;;;;;;;;33.50;30.25;;;;;5.61;72.06;102954.03;5057688;28;45398;-61
2022/01/18 06:24:35;;;;;;;;;32.00;26.50;;;;;5.66;72.29;102954.16;5056997;28;46406;-60
2022/01/18 06:27:01;;;;;;;;;31.25;27.25;;;;;5.65;72.31;102955.00;5038548;28;45519;-61
2022/01/18 06:29:26;;;;;;;;;36.25;30.50;;;;;5.65;71.83;102948.06;5052570;28;45619;-61
2022/01/18 06:31:51;;;;;;;;;32.25;27.00;;;;;5.61;72.30;102951.44;5034240;28;45595;-61
2022/01/18 06:34:17;;;;;;;;;29.25;25.25;;;;;5.58;71.97;102940.91;5057130;28;46022;-60
2022/01/18 06:36:43;;;;;;;;;30.50;25.25;;;;;5.53;71.94;102946.06;5056217;28;45453;-60
2022/01/18 06:39:09;;;;;;;;;27.00;23.25;;;;;5.55;72.44;102943.47;5058317;28;45438;-60
2022/01/18 06:41:35;;;;;;;;;30.25;29.00;;;;;5.56;71.79;102946.94;5039312;28;45476;-61
2022/01/18 06:44:00;;;;;;;;;24.50;23.25;;;;;5.57;71.78;102954.81;5055544;28;45530;-61
2022/01/18 06:46:25;;;;;;;;;30.00;25.50;;;;;5.57;71.84;102953.94;5057114;28;45540;-61
2022/01/18 06:48:52;;;;;;;;;30.75;23.25;;;;;5.57;71.61;102959.16;5057857;28;45435;-62
2022/01/18 06:51:17;;;;;;;;;26.75;23.00;;;;;5.56;72.00;102957.38;5057689;28;45455;-61
2022/01/18 06:53:47;;;;;;;;;23.50;19.25;;;;;5.54;72.14;102955.63;5056438;28;45555;-61
2022/01/18 06:56:15;;;;;;;;;26.25;25.25;;;;;5.54;71.88;102955.63;5057850;28;45464;-61
2022/01/18 06:58:43;;;;;;;;;25.25;24.75;;;;;5.53;71.90;102953.88;5056962;28;45467;-62
2022/01/18 07:01:10;;;;;;;;;30.75;26.75;;;;;5.51;72.38;102952.09;5056978;28;45507;-64
2022/01/18 07:03:35;;;;;;;;;39.00;32.75;;;;;5.47;72.31;102950.22;5055518;28;46091;-62
2022/01/18 07:06:01;;;;;;;;;39.50;36.00;;;;;5.51;72.48;102955.56;5052068;28;45527;-62
2022/01/18 07:08:26;;;;;;;;;31.25;27.75;;;;;5.57;72.09;102953.94;5057335;28;45506;-64
2022/01/18 07:10:52;;;;;;;;;30.50;27.75;;;;;5.57;72.07;102956.56;5038392;28;45443;-63
2022/01/18 07:13:17;;;;;;;;;26.00;26.00;;;;;5.55;72.06;102956.50;5057103;28;46012;-63
2022/01/18 07:15:42;;;;;;;;;36.25;29.50;;;;;5.56;72.13;102953.03;5056176;28;45480;-63
2022/01/18 07:18:10;;;;;;;;;30.25;28.00;;;;;5.59;72.34;102957.44;5057169;28;45470;-63
2022/01/18 07:20:36;;;;;;;;;24.25;22.75;;;;;5.60;72.06;102946.19;5038476;28;45706;-61
2022/01/18 07:23:01;;;;;;;;;29.50;29.50;;;;;5.59;71.80;102947.00;5055139;28;45480;-66
2022/01/18 07:25:27;;;;;;;;;176.50;162.25;;;;;5.63;72.42;102956.69;5054968;28;45370;-60
2022/01/18 07:27:52;;;;;;;;;219.00;195.25;;;;;5.62;72.09;102952.34;5038461;28;45646;-65
2022/01/18 07:30:18;;;;;;;;;35.75;31.50;;;;;5.63;72.17;102939.28;5039695;28;45511;-61
2022/01/18 07:32:43;;;;;;;;;34.50;31.25;;;;;5.69;71.87;102944.66;5056046;28;46371;-61
2022/01/18 07:35:11;;;;;;;;;31.25;24.00;;;;;5.68;71.63;102937.66;5057149;28;45510;-62
2022/01/18 07:37:37;;;;;;;;;35.00;31.25;;;;;5.68;71.52;102939.41;5057278;28;45486;-61
2022/01/18 07:40:04;;;;;;;;;37.00;32.25;;;;;5.64;71.48;102932.34;5056872;28;45481;-61
2022/01/18 07:42:29;;;;;;;;;32.00;29.75;;;;;5.63;71.44;102930.59;5056332;28;45444;-61
2022/01/18 07:44:55;;;;;;;;;34.75;30.00;;;;;5.63;71.35;102935.81;5057227;28;45459;-61
2022/01/18 07:47:20;;;;;;;;;31.50;27.75;;;;;5.65;71.71;102927.16;5056974;28;45780;-61
2022/01/18 07:49:47;;;;;;;;;36.50;30.25;;;;;5.65;71.85;102931.50;5056922;28;45940;-61
2022/01/18 07:52:12;;;;;;;;;33.75;28.50;;;;;5.65;71.59;102928.91;5056815;28;45379;-61
2022/01/18 07:54:38;;;;;;;;;30.75;28.50;;;;;5.68;71.23;102934.19;5056380;28;45450;-61
2022/01/18 07:57:04;;;;;;;;;29.75;29.25;;;;;5.65;71.27;102936.72;5039109;28;45472;-62
2022/01/18 07:59:29;;;;;;;;;32.50;28.25;;;;;5.69;71.54;102933.31;5056878;28;45401;-61
2022/01/18 08:01:55;;;;;;;;;36.00;27.75;;;;;5.69;71.47;102938.53;5056756;28;46000;-62
2022/01/18 08:04:21;;;;;;;;;32.00;26.00;;;;;5.73;71.07;102936.06;5056357;28;45435;-61
2022/01/18 08:06:47;;;;;;;;;32.50;29.50;;;;;5.73;71.33;102930.81;5057070;28;45440;-62
2022/01/18 08:09:16;;;;;;;;;30.25;26.25;;;;;5.75;70.80;102929.16;5056928;28;45416;-61
2022/01/18 08:11:41;;;;;;;;;41.75;37.75;;;;;5.77;70.97;102921.31;5056694;28;45377;-61
2022/01/18 08:14:07;;;;;;;;;34.00;31.50;;;;;5.81;71.36;102920.56;5056308;28;45357;-61
2022/01/18 08:19:02;;;;;;;;;33.50;27.50;;;;;5.88;70.90;102913.72;5056836;28;45387;-62
2022/01/18 08:21:28;;;;;;;;;35.50;27.50;;;;;5.88;71.12;102913.72;5056573;28;45560;-61
2022/01/18 08:23:53;;;;;;;;;34.50;30.25;;;;;5.89;70.89;102908.53;5056777;28;45452;-61
2022/01/18 08:26:20;;;;;;;;;33.00;28.25;;;;;5.90;70.92;102910.28;5056106;28;45492;-62
2022/01/18 08:28:46;;;;;;;;;32.50;31.50;;;;;5.94;70.96;102917.41;5056672;28;45488;-61
2022/01/18 08:31:11;;;;;;;;;31.75;27.75;;;;;5.99;70.68;102909.63;5056266;28;46125;-61
2022/01/18 08:33:37;;;;;;;;;30.50;29.00;;;;;6.03;70.81;102919.31;5038564;28;45409;-61
2022/01/18 08:36:06;;;;;;;;;29.50;24.00;;;;;6.06;70.88;102919.38;5056372;28;45484;-61
2022/01/18 08:38:32;;;;;;;;;33.50;28.00;;;;;6.07;70.57;102920.25;5037168;28;45439;-61
2022/01/18 08:40:59;;;;;;;;;31.75;27.00;;;;;6.11;70.56;102928.19;5056110;28;45464;-61
2022/01/18 08:43:25;;;;;;;;;33.50;30.50;;;;;6.13;70.69;102917.78;5054777;28;45444;-61
2022/01/18 08:45:50;;;;;;;;;28.00;28.00;;;;;6.15;70.92;102922.19;5056015;28;45464;-61
2022/01/18 08:48:16;;;;;;;;;29.75;29.50;;;;;6.20;70.46;102922.25;5055814;28;45536;-62
2022/01/18 08:50:41;;;;;;;;;32.75;28.50;;;;;6.26;70.23;102922.41;5055866;28;45421;-62
2022/01/18 08:53:07;;;;;;;;;27.00;23.50;;;;;6.29;70.79;102916.38;5055837;28;45500;-62
2022/01/18 08:55:34;;;;;;;;;25.50;24.00;;;;;6.33;70.13;102920.78;5056476;28;45459;-62
2022/01/18 08:58:03;;;;;;;;;32.50;31.00;;;;;6.35;70.73;102919.97;5056238;28;45655;-61
2022/01/18 09:00:30;;;;;;;;;32.25;28.50;;;;;6.38;70.39;102906.94;5055077;28;46298;-62
2022/01/18 09:02:55;;;;;;;;;26.00;26.00;;;;;6.40;71.09;102920.06;5055833;28;45373;-61
2022/01/18 09:05:23;;;;;;;;;32.00;27.50;;;;;6.42;70.84;102913.09;5055873;28;45418;-62
2022/01/18 09:07:50;;;;;;;;;27.50;24.50;;;;;6.48;70.54;102904.53;5055812;28;45334;-62
2022/01/18 09:10:15;;;;;;;;;37.75;32.50;;;;;6.48;70.64;102901.91;5055009;28;45428;-62
2022/01/18 09:12:41;;;;;;;;;26.00;22.25;;;;;6.59;70.86;102913.44;5055819;28;45484;-61
2022/01/18 09:15:09;;;;;;;;;27.25;24.25;;;;;6.63;70.92;102912.63;5055575;28;45429;-61
2022/01/18 09:17:36;;;;;;;;;27.25;23.75;;;;;6.68;70.72;102910.09;5055719;28;45478;-61
2022/01/18 09:20:06;;;;;;;;;32.25;28.75;;;;;6.73;70.50;102909.34;5055440;28;46463;-62
2022/01/18 09:22:35;;;;;;;;;31.00;29.25;;;;;6.77;71.12;102911.16;5054963;28;45420;-61
2022/01/18 09:25:03;;;;;;;;;28.75;26.00;;;;;6.81;71.20;102899.88;5055648;28;45527;-62
2022/01/18 09:27:28;;;;;;;;;27.00;25.00;;;;;6.84;70.73;102907.78;5055742;28;45369;-62
2022/01/18 09:29:53;;;;;;;;;30.00;26.75;;;;;6.88;70.79;102902.59;5054130;28;45598;-62
2022/01/18 09:32:19;;;;;;;;;30.75;24.75;;;;;6.91;71.23;102908.78;5054934;28;45385;-63
2022/01/18 09:34:44;;;;;;;;;33.75;29.50;;;;;6.92;71.25;102901.81;5055668;28;45770;-62
2022/01/18 09:37:09;;;;;;;;;34.00;29.00;;;;;6.96;70.86;102901.91;5055622;28;45523;-62
2022/01/18 09:39:35;;;;;;;;;30.25;28.75;;;;;6.98;70.97;102900.16;5055543;28;46223;-62
2022/01/18 09:42:04;;;;;;;;;32.75;29.50;;;;;7.02;70.84;102899.38;5055250;28;45523;-62
2022/01/18 09:44:30;;;;;;;;;26.75;26.75;;;;;7.05;70.83;102896.78;5055012;28;45491;-62
2022/01/18 09:46:55;;;;;;;;;32.00;29.00;;;;;7.11;70.37;102901.25;5055353;28;45475;-62
2022/01/18 09:49:22;;;;;;;;;29.25;28.00;;;;;7.18;70.69;102895.25;5055478;28;45483;-62
2022/01/18 09:51:48;;;;;;;;;28.50;28.50;;;;;7.20;70.06;102904.03;5055265;28;45460;-62
2022/01/18 09:54:14;;;;;;;;;39.00;33.00;;;;;7.23;70.75;102905.81;5054588;28;45372;-62
2022/01/18 09:56:39;;;;;;;;;35.00;32.00;;;;;7.25;70.48;102904.97;5055404;28;45518;-62
2022/01/18 09:59:06;;;;;;;;;33.75;29.00;;;;;7.27;70.49;102902.38;5054956;28;45494;-62
2022/01/18 10:01:32;;;;;;;;;31.25;29.75;;;;;7.29;70.79;102905.91;5036482;28;45485;-62
2022/01/18 10:04:19;;;;;;;;;30.25;27.75;;;;;7.30;69.84;102895.44;5055047;28;45409;-62
2022/01/18 10:06:53;;;;;;;;;28.25;25.50;;;;;7.29;70.40;102893.69;5055276;28;45544;-62
2022/01/18 10:09:20;;;;;;;;;30.75;27.25;;;;;7.34;70.54;102900.75;5055160;28;46147;-62
2022/01/18 10:12:11;;;;;;;;;30.50;29.25;;;;;7.37;70.80;102900.78;5054647;28;45371;-62
2022/01/18 10:14:52;;;;;;;;;35.50;30.25;;;;;7.38;70.43;102907.78;5053786;28;45456;-62
2022/01/18 10:17:28;;;;;;;;;37.75;31.75;;;;;7.38;70.34;102898.16;5054456;28;45349;-61
2022/01/18 10:19:53;;;;;;;;;39.50;32.25;;;;;7.38;70.45;102894.69;5054458;28;46205;-62
2022/01/18 10:22:24;;;;;;;;;34.75;30.75;;;;;7.43;71.02;102886.03;5054149;28;45441;-63
2022/01/18 10:24:52;;;;;;;;;29.75;29.50;;;;;7.48;70.31;102893.97;5055026;28;45459;-62
2022/01/18 10:27:18;;;;;;;;;35.25;30.25;;;;;7.48;70.21;102894.84;5054389;28;45384;-61
2022/01/18 10:29:47;;;;;;;;;32.25;31.75;;;;;7.55;70.32;102889.69;5054895;28;46061;-61
2022/01/18 10:32:31;;;;;;;;;33.25;31.50;;;;;7.55;70.38;102890.59;5055173;28;45410;-61
2022/01/18 10:37:25;;;;;;;;;31.75;27.00;;;;;7.65;70.16;102879.34;5054703;28;45549;-62
2022/01/18 10:40:15;;;;;;;;;43.00;38.25;;;;;7.70;69.85;102875.06;5054964;28;45705;-62
2022/01/18 10:42:52;;;;;;;;;25.75;24.00;;;;;7.75;69.57;102864.66;5039198;28;45413;-62
2022/01/18 10:45:31;;;;;;;;;26.25;24.25;;;;;7.80;69.99;102859.47;5058283;28;45459;-62
2022/01/18 10:48:02;;;;;;;;;40.25;32.50;;;;;7.78;69.30;102835.00;5058089;28;45540;-62
2022/01/18 10:50:32;;;;;;;;;30.25;28.25;;;;;7.88;69.59;102856.09;5057187;28;46658;-62
2022/01/18 10:53:10;;;;;;;;;31.25;28.75;;;;;7.91;69.32;102844.75;5057682;28;45535;-62
2022/01/18 10:55:35;;;;;;;;;26.50;24.75;;;;;7.91;69.43;102840.41;5057991;28;45451;-63
2022/01/18 10:58:15;;;;;;;;;25.00;23.50;;;;;7.92;68.71;102842.16;5057994;28;45358;-63
2022/01/18 11:00:41;;;;;;;;;25.00;22.25;;;;;7.90;68.13;102827.31;5057209;28;45413;-62
2022/01/18 11:03:07;;;;;;;;;27.00;27.00;;;;;7.94;68.45;102831.69;5057715;28;45388;-63
2022/01/18 11:05:35;;;;;;;;;23.50;23.50;;;;;8.00;67.67;102836.13;5058005;28;45409;-63
2022/01/18 11:08:04;;;;;;;;;21.75;21.75;;;;;8.06;67.73;102818.75;5039577;28;45714;-62
2022/01/18 11:10:34;;;;;;;;;24.50;21.75;;;;;8.11;68.11;102824.91;5056264;28;45440;-63
2022/01/18 11:13:04;;;;;;;;;16.00;15.75;;;;;8.10;66.98;102819.66;5057453;28;45549;-62
2022/01/18 11:15:36;;;;;;;;;24.50;22.00;;;;;8.05;67.08;102811.72;5057947;28;45397;-61
2022/01/18 11:18:06;;;;;;;;;23.25;22.75;;;;;8.03;67.14;102807.31;5057632;28;45495;-61
2022/01/18 11:20:39;;;;;;;;;21.00;20.25;;;;;8.05;67.09;102805.59;5039154;28;45409;-62
2022/01/18 11:23:06;;;;;;;;;18.50;17.25;;;;;8.03;67.01;102791.59;5056686;28;45471;-62
2022/01/18 11:25:33;;;;;;;;;28.50;22.25;;;;;8.04;67.23;102794.25;5057531;28;45386;-62
2022/01/18 11:27:59;;;;;;;;;23.75;16.75;;;;;8.03;66.80;102779.38;5057548;28;45505;-63
2022/01/18 11:30:34;;;;;;;;;14.25;13.25;;;;;8.03;66.38;102782.00;5057499;28;45916;-63
2022/01/18 11:33:03;;;;;;;;;16.50;15.50;;;;;8.02;66.26;102772.38;5057142;28;45428;-64
2022/01/18 11:35:58;;;;;;;;;24.25;22.50;;;;;8.02;65.40;102763.66;5039440;28;45413;-63
2022/01/18 11:38:45;;;;;;;;;19.50;17.50;;;;;8.00;66.18;102761.00;5048001;28;45559;-62
2022/01/18 11:41:23;;;;;;;;;15.50;12.25;;;;;8.02;66.01;102758.41;5057218;28;45460;-62
2022/01/18 11:43:51;;;;;;;;;18.50;16.75;;;;;8.03;65.94;102757.53;5056816;28;45448;-61
2022/01/18 11:46:22;;;;;;;;;23.25;17.25;;;;;8.06;65.14;102744.47;5057519;28;45402;-62
2022/01/18 11:48:57;;;;;;;;;21.75;20.00;;;;;8.08;65.64;102751.47;5057217;28;45440;-61
2022/01/18 11:51:38;;;;;;;;;12.50;12.50;;;;;8.08;65.39;102740.13;5056273;28;46282;-63
2022/01/18 11:54:39;;;;;;;;;17.00;16.25;;;;;8.09;65.20;102749.75;5056851;28;45546;-63
2022/01/18 11:57:24;;;;;;;;;18.25;13.50;;;;;8.11;65.79;102741.06;5057348;28;45475;-63
2022/01/18 11:59:55;;;;;;;;;21.75;17.75;;;;;8.11;64.97;102725.31;5056680;28;45377;-62
2022/01/18 12:02:37;;;;;;;;;13.00;13.00;;;;;8.18;64.85;102729.72;5056532;28;46179;-62
2022/01/18 12:05:13;;;;;;;;;14.00;14.00;;;;;8.17;63.66;102733.22;5056621;28;45390;-62
2022/01/18 12:07:43;;;;;;;;;14.00;12.50;;;;;8.21;63.64;102728.88;5037597;28;45485;-63
2022/01/18 12:10:08;;;;;;;;;13.50;13.50;;;;;8.25;63.44;102719.28;5037987;28;45479;-62
2022/01/18 12:12:40;;;;;;;;;7.25;6.75;;;;;8.28;63.14;102719.34;5038403;28;46257;-62
2022/01/18 12:15:24;;;;;;;;;15.50;13.25;;;;;8.32;62.99;102715.88;5056906;28;45400;-64
2022/01/18 12:18:01;;;;;;;;;12.75;12.75;;;;;8.37;63.93;102714.16;5056514;28;45431;-63
2022/01/18 12:20:37;;;;;;;;;10.25;10.25;;;;;8.40;62.37;102707.22;5056584;28;45457;-63
2022/01/18 12:23:05;;;;;;;;;14.75;14.00;;;;;8.44;62.18;102705.53;5038076;28;46203;-63
2022/01/18 12:25:36;;;;;;;;;21.75;19.00;;;;;8.48;62.05;102699.41;5056263;28;45827;-63
2022/01/18 12:28:49;;;;;;;;;12.25;12.25;;;;;8.55;62.71;102692.50;5055907;28;45405;-63
2022/01/18 12:31:53;;;;;;;;;12.50;10.75;;;;;8.60;62.22;102686.41;5038384;28;45522;-63
2022/01/18 12:34:47;;;;;;;;;11.25;11.25;;;;;8.68;62.14;102681.22;5056134;28;45499;-63
2022/01/18 12:37:23;;;;;;;;;15.75;15.25;;;;;8.71;62.45;102668.09;5056224;28;45456;-63
2022/01/18 12:39:55;;;;;;;;;16.00;12.00;;;;;8.77;62.55;102664.63;5056120;28;45489;-63
2022/01/18 12:44:20;;;;;;;;;13.00;13.00;;;;;8.84;62.55;102669.06;5056289;28;45583;-63